sensor_id;sensor_type;location;lat;lon;timestamp;pressure;altitude;pressure_sealevel;temperature
6498;BMP280;3282;48.358;10.958;2022-09-09T00:03:48;96039.47;;;15.74
6498;BMP280;3282;48.358;10.958;2022-09-09T00:06:42;96031.75;;;15.76
6498;BMP280;3282;48.358;10.958;2022-09-09T00:09:16;96035.59;;;15.75
6498;BMP280;3282;48.358;10.958;2022-09-09T00:11:48;96025.28;;;15.63
6498;BMP280;3282;48.358;10.958;2022-09-09T00:14:19;96033.31;;;15.70
6498;BMP280;3282;48.358;10.958;2022-09-09T00:16:55;96034.50;;;15.69
6498;BMP280;3282;48.358;10.958;2022-09-09T00:19:30;96026.06;;;15.67
6498;BMP280;3282;48.358;10.958;2022-09-09T00:22:07;96032.22;;;15.64
6498;BMP280;3282;48.358;10.958;2022-09-09T00:24:46;96009.63;;;15.50
6498;BMP280;3282;48.358;10.958;2022-09-09T00:27:34;96023.81;;;15.58
6498;BMP280;3282;48.358;10.958;2022-09-09T00:32:46;96019.97;;;15.55
6498;BMP280;3282;48.358;10.958;2022-09-09T00:35:17;96019.56;;;15.57
6498;BMP280;3282;48.358;10.958;2022-09-09T00:37:46;96026.50;;;15.58
6498;BMP280;3282;48.358;10.958;2022-09-09T00:40:24;96033.41;;;15.59
6498;BMP280;3282;48.358;10.958;2022-09-09T00:43:02;96031.09;;;15.61
6498;BMP280;3282;48.358;10.958;2022-09-09T00:45:50;96027.97;;;15.63
6498;BMP280;3282;48.358;10.958;2022-09-09T00:48:20;96018.41;;;15.62
6498;BMP280;3282;48.358;10.958;2022-09-09T00:50:56;96010.31;;;15.58
6498;BMP280;3282;48.358;10.958;2022-09-09T00:56:29;96023.84;;;15.54
6498;BMP280;3282;48.358;10.958;2022-09-09T00:59:07;96025.81;;;15.50
6498;BMP280;3282;48.358;10.958;2022-09-09T01:01:38;96024.25;;;15.49
6498;BMP280;3282;48.358;10.958;2022-09-09T01:04:16;96016.56;;;15.48
6498;BMP280;3282;48.358;10.958;2022-09-09T01:06:50;96023.88;;;15.47
6498;BMP280;3282;48.358;10.958;2022-09-09T01:12:07;96022.28;;;15.53
6498;BMP280;3282;48.358;10.958;2022-09-09T01:17:21;96015.72;;;15.58
6498;BMP280;3282;48.358;10.958;2022-09-09T01:28:11;96015.69;;;15.62
6498;BMP280;3282;48.358;10.958;2022-09-09T01:30:41;96010.31;;;15.62
6498;BMP280;3282;48.358;10.958;2022-09-09T01:33:15;96002.97;;;15.59
6498;BMP280;3282;48.358;10.958;2022-09-09T01:35:50;96007.19;;;15.63
6498;BMP280;3282;48.358;10.958;2022-09-09T01:38:24;96004.13;;;15.61
6498;BMP280;3282;48.358;10.958;2022-09-09T01:40:52;96003.72;;;15.63
6498;BMP280;3282;48.358;10.958;2022-09-09T01:43:25;95985.81;;;15.41
6498;BMP280;3282;48.358;10.958;2022-09-09T01:45:53;96001.13;;;15.52
6498;BMP280;3282;48.358;10.958;2022-09-09T01:48:23;96007.72;;;15.47
6498;BMP280;3282;48.358;10.958;2022-09-09T01:51:01;96009.69;;;15.43
6498;BMP280;3282;48.358;10.958;2022-09-09T01:53:28;95985.09;;;15.34
6498;BMP280;3282;48.358;10.958;2022-09-09T01:56:35;96002.38;;;15.43
6498;BMP280;3282;48.358;10.958;2022-09-09T01:59:20;96002.72;;;15.42
6498;BMP280;3282;48.358;10.958;2022-09-09T02:04:47;95996.56;;;15.45
6498;BMP280;3282;48.358;10.958;2022-09-09T02:07:41;96004.63;;;15.45
6498;BMP280;3282;48.358;10.958;2022-09-09T02:10:20;95991.16;;;15.45
6498;BMP280;3282;48.358;10.958;2022-09-09T02:13:12;95988.88;;;15.43
6498;BMP280;3282;48.358;10.958;2022-09-09T02:15:47;95986.56;;;15.42
6498;BMP280;3282;48.358;10.958;2022-09-09T02:18:23;95981.16;;;15.42
6498;BMP280;3282;48.358;10.958;2022-09-09T02:20:53;95977.38;;;15.36
6498;BMP280;3282;48.358;10.958;2022-09-09T02:23:20;95970.13;;;15.33
6498;BMP280;3282;48.358;10.958;2022-09-09T02:25:52;95981.22;;;15.38
6498;BMP280;3282;48.358;10.958;2022-09-09T02:28:25;95969.72;;;15.30
6498;BMP280;3282;48.358;10.958;2022-09-09T02:30:53;95958.25;;;15.19
6498;BMP280;3282;48.358;10.958;2022-09-09T02:33:29;95979.34;;;15.28
6498;BMP280;3282;48.358;10.958;2022-09-09T02:35:58;95978.25;;;15.25
6498;BMP280;3282;48.358;10.958;2022-09-09T02:38:31;95974.44;;;15.19
6498;BMP280;3282;48.358;10.958;2022-09-09T02:41:07;95973.63;;;15.22
6498;BMP280;3282;48.358;10.958;2022-09-09T02:43:35;95975.16;;;15.23
6498;BMP280;3282;48.358;10.958;2022-09-09T02:46:20;95973.63;;;15.22
6498;BMP280;3282;48.358;10.958;2022-09-09T02:49:11;95975.19;;;15.20
6498;BMP280;3282;48.358;10.958;2022-09-09T02:54:34;95966.34;;;15.15
6498;BMP280;3282;48.358;10.958;2022-09-09T02:57:17;95976.38;;;15.11
6498;BMP280;3282;48.358;10.958;2022-09-09T02:59:48;95974.50;;;15.08
6498;BMP280;3282;48.358;10.958;2022-09-09T03:02:15;95968.00;;;15.02
6498;BMP280;3282;48.358;10.958;2022-09-09T03:04:45;95966.09;;;14.99
6498;BMP280;3282;48.358;10.958;2022-09-09T03:07:18;95966.47;;;15.01
6498;BMP280;3282;48.358;10.958;2022-09-09T03:09:46;95973.78;;;15.00
6498;BMP280;3282;48.358;10.958;2022-09-09T03:12:13;95948.09;;;14.85
6498;BMP280;3282;48.358;10.958;2022-09-09T03:14:40;95974.56;;;14.97
6498;BMP280;3282;48.358;10.958;2022-09-09T03:17:07;95980.75;;;14.94
6498;BMP280;3282;48.358;10.958;2022-09-09T03:19:41;95985.38;;;14.94
6498;BMP280;3282;48.358;10.958;2022-09-09T03:22:12;95979.59;;;14.91
6498;BMP280;3282;48.358;10.958;2022-09-09T03:24:42;95986.88;;;14.91
6498;BMP280;3282;48.358;10.958;2022-09-09T03:27:09;95981.50;;;14.91
6498;BMP280;3282;48.358;10.958;2022-09-09T03:29:37;95987.66;;;14.91
6498;BMP280;3282;48.358;10.958;2022-09-09T03:32:07;95981.88;;;14.93
6498;BMP280;3282;48.358;10.958;2022-09-09T03:34:37;95988.06;;;14.94
6498;BMP280;3282;48.358;10.958;2022-09-09T03:37:10;95984.59;;;14.93
6498;BMP280;3282;48.358;10.958;2022-09-09T03:39:36;95980.75;;;14.94
6498;BMP280;3282;48.358;10.958;2022-09-09T03:42:03;95974.97;;;14.96
6498;BMP280;3282;48.358;10.958;2022-09-09T03:44:31;95972.28;;;14.96
6498;BMP280;3282;48.358;10.958;2022-09-09T03:46:57;95967.28;;;14.94
6498;BMP280;3282;48.358;10.958;2022-09-09T03:49:27;95967.31;;;14.90
6498;BMP280;3282;48.358;10.958;2022-09-09T03:51:56;95962.66;;;14.95
6498;BMP280;3282;48.358;10.958;2022-09-09T03:54:24;95962.28;;;14.92
6498;BMP280;3282;48.358;10.958;2022-09-09T03:56:51;95973.44;;;14.91
6498;BMP280;3282;48.358;10.958;2022-09-09T03:59:19;95956.53;;;14.90
6498;BMP280;3282;48.358;10.958;2022-09-09T04:01:47;95959.63;;;14.89
6498;BMP280;3282;48.358;10.958;2022-09-09T04:04:13;95943.13;;;14.79
6498;BMP280;3282;48.358;10.958;2022-09-09T04:06:40;95953.91;;;14.83
6498;BMP280;3282;48.358;10.958;2022-09-09T04:09:07;95962.38;;;14.82
6498;BMP280;3282;48.358;10.958;2022-09-09T04:11:34;95960.81;;;14.81
6498;BMP280;3282;48.358;10.958;2022-09-09T04:14:00;95953.50;;;14.81
6498;BMP280;3282;48.358;10.958;2022-09-09T04:16:29;95951.94;;;14.84
6498;BMP280;3282;48.358;10.958;2022-09-09T04:18:55;95939.31;;;14.77
6498;BMP280;3282;48.358;10.958;2022-09-09T04:21:22;95952.31;;;14.89
6498;BMP280;3282;48.358;10.958;2022-09-09T04:23:49;95958.84;;;14.88
6498;BMP280;3282;48.358;10.958;2022-09-09T04:26:17;95959.25;;;14.90
6498;BMP280;3282;48.358;10.958;2022-09-09T04:28:44;95955.34;;;14.91
6498;BMP280;3282;48.358;10.958;2022-09-09T04:31:21;95958.03;;;14.91
6498;BMP280;3282;48.358;10.958;2022-09-09T04:33:52;95964.63;;;14.90
6498;BMP280;3282;48.358;10.958;2022-09-09T04:36:20;95967.72;;;14.89
6498;BMP280;3282;48.358;10.958;2022-09-09T04:38:48;95958.50;;;14.83
6498;BMP280;3282;48.358;10.958;2022-09-09T04:41:16;95963.81;;;14.94
6498;BMP280;3282;48.358;10.958;2022-09-09T04:43:47;95965.31;;;14.98
6498;BMP280;3282;48.358;10.958;2022-09-09T04:46:15;95954.91;;;15.00
6498;BMP280;3282;48.358;10.958;2022-09-09T04:48:46;95967.94;;;15.09
6498;BMP280;3282;48.358;10.958;2022-09-09T04:51:13;95957.91;;;15.13
6498;BMP280;3282;48.358;10.958;2022-09-09T04:53:42;95960.56;;;15.21
6498;BMP280;3282;48.358;10.958;2022-09-09T04:56:13;95963.25;;;15.21
6498;BMP280;3282;48.358;10.958;2022-09-09T04:58:44;95958.22;;;15.26
6498;BMP280;3282;48.358;10.958;2022-09-09T05:01:16;95957.00;;;15.27
6498;BMP280;3282;48.358;10.958;2022-09-09T05:03:45;95956.25;;;15.30
6498;BMP280;3282;48.358;10.958;2022-09-09T05:06:18;95954.66;;;15.33
6498;BMP280;3282;48.358;10.958;2022-09-09T05:08:47;95952.34;;;15.35
6498;BMP280;3282;48.358;10.958;2022-09-09T05:11:21;95959.59;;;15.42
6498;BMP280;3282;48.358;10.958;2022-09-09T05:13:53;95950.38;;;15.43
6498;BMP280;3282;48.358;10.958;2022-09-09T05:16:20;95958.06;;;15.44
6498;BMP280;3282;48.358;10.958;2022-09-09T05:18:47;95959.53;;;15.49
6498;BMP280;3282;48.358;10.958;2022-09-09T05:21:15;95958.75;;;15.52
6498;BMP280;3282;48.358;10.958;2022-09-09T05:23:44;95956.44;;;15.54
6498;BMP280;3282;48.358;10.958;2022-09-09T05:26:16;95951.75;;;15.59
6498;BMP280;3282;48.358;10.958;2022-09-09T05:28:46;95955.56;;;15.65
6498;BMP280;3282;48.358;10.958;2022-09-09T05:31:14;95962.09;;;15.67
6498;BMP280;3282;48.358;10.958;2022-09-09T05:33:46;95960.50;;;15.70
6498;BMP280;3282;48.358;10.958;2022-09-09T05:36:16;95968.22;;;15.72
6498;BMP280;3282;48.358;10.958;2022-09-09T05:38:45;95969.75;;;15.73
6498;BMP280;3282;48.358;10.958;2022-09-09T05:41:13;95972.47;;;15.73
6498;BMP280;3282;48.358;10.958;2022-09-09T05:43:45;95989.38;;;15.73
6498;BMP280;3282;48.358;10.958;2022-09-09T05:46:19;96005.91;;;15.75
6498;BMP280;3282;48.358;10.958;2022-09-09T05:48:48;96019.06;;;15.73
6498;BMP280;3282;48.358;10.958;2022-09-09T05:51:20;96032.53;;;15.69
6498;BMP280;3282;48.358;10.958;2022-09-09T05:53:48;96040.63;;;15.69
6498;BMP280;3282;48.358;10.958;2022-09-09T05:56:17;96041.41;;;15.70
6498;BMP280;3282;48.358;10.958;2022-09-09T05:58:44;96037.94;;;15.73
6498;BMP280;3282;48.358;10.958;2022-09-09T06:01:13;96040.97;;;15.79
6498;BMP280;3282;48.358;10.958;2022-09-09T06:03:42;96036.31;;;15.83
6498;BMP280;3282;48.358;10.958;2022-09-09T06:06:12;96040.88;;;15.86
6498;BMP280;3282;48.358;10.958;2022-09-09T06:08:40;96031.63;;;15.91
6498;BMP280;3282;48.358;10.958;2022-09-09T06:11:12;96035.38;;;15.97
6498;BMP280;3282;48.358;10.958;2022-09-09T06:13:40;96030.75;;;16.01
6498;BMP280;3282;48.358;10.958;2022-09-09T06:16:13;96028.34;;;16.11
6498;BMP280;3282;48.358;10.958;2022-09-09T06:18:42;96037.88;;;16.19
6498;BMP280;3282;48.358;10.958;2022-09-09T06:21:33;96040.50;;;16.26
6498;BMP280;3282;48.358;10.958;2022-09-09T06:24:02;96033.56;;;16.29
6498;BMP280;3282;48.358;10.958;2022-09-09T06:26:31;96035.41;;;16.32
6498;BMP280;3282;48.358;10.958;2022-09-09T06:29:01;96029.66;;;16.30
6498;BMP280;3282;48.358;10.958;2022-09-09T06:31:33;96028.44;;;16.38
6498;BMP280;3282;48.358;10.958;2022-09-09T06:34:08;96037.16;;;16.50
6498;BMP280;3282;48.358;10.958;2022-09-09T06:36:39;96033.69;;;16.53
6498;BMP280;3282;48.358;10.958;2022-09-09T06:39:07;96035.88;;;16.61
6498;BMP280;3282;48.358;10.958;2022-09-09T06:41:40;96023.84;;;16.66
6498;BMP280;3282;48.358;10.958;2022-09-09T06:44:16;96037.66;;;16.72
6498;BMP280;3282;48.358;10.958;2022-09-09T06:46:43;96041.91;;;16.73
6498;BMP280;3282;48.358;10.958;2022-09-09T06:49:10;96037.59;;;16.76
6498;BMP280;3282;48.358;10.958;2022-09-09T06:51:37;96030.25;;;16.80
6498;BMP280;3282;48.358;10.958;2022-09-09T06:54:11;96029.00;;;16.84
6498;BMP280;3282;48.358;10.958;2022-09-09T06:56:42;96033.97;;;16.90
6498;BMP280;3282;48.358;10.958;2022-09-09T06:59:15;96034.66;;;16.94
6498;BMP280;3282;48.358;10.958;2022-09-09T07:01:44;96038.88;;;16.98
6498;BMP280;3282;48.358;10.958;2022-09-09T07:04:13;96039.16;;;17.04
6498;BMP280;3282;48.358;10.958;2022-09-09T07:06:46;96035.25;;;17.09
6498;BMP280;3282;48.358;10.958;2022-09-09T07:09:17;96024.81;;;17.11
6498;BMP280;3282;48.358;10.958;2022-09-09T07:11:51;96030.22;;;17.07
6498;BMP280;3282;48.358;10.958;2022-09-09T07:14:25;96036.34;;;17.11
6498;BMP280;3282;48.358;10.958;2022-09-09T07:16:56;96043.72;;;17.11
6498;BMP280;3282;48.358;10.958;2022-09-09T07:19:32;96049.88;;;17.11
6498;BMP280;3282;48.358;10.958;2022-09-09T07:22:00;96052.50;;;17.15
6498;BMP280;3282;48.358;10.958;2022-09-09T07:24:29;96047.88;;;17.16
6498;BMP280;3282;48.358;10.958;2022-09-09T07:26:57;96059.34;;;17.23
6498;BMP280;3282;48.358;10.958;2022-09-09T07:29:23;96055.41;;;17.28
6498;BMP280;3282;48.358;10.958;2022-09-09T07:31:50;96066.19;;;17.32
6498;BMP280;3282;48.358;10.958;2022-09-09T07:34:22;96055.38;;;17.32
6498;BMP280;3282;48.358;10.958;2022-09-09T07:36:50;96062.66;;;17.35
6498;BMP280;3282;48.358;10.958;2022-09-09T07:39:17;96066.53;;;17.34
6498;BMP280;3282;48.358;10.958;2022-09-09T07:41:49;96066.13;;;17.35
6498;BMP280;3282;48.358;10.958;2022-09-09T07:44:20;96074.94;;;17.39
6498;BMP280;3282;48.358;10.958;2022-09-09T07:46:53;96071.78;;;17.45
6498;BMP280;3282;48.358;10.958;2022-09-09T07:49:25;96074.84;;;17.47
6498;BMP280;3282;48.358;10.958;2022-09-09T07:51:58;96059.00;;;17.49
6498;BMP280;3282;48.358;10.958;2022-09-09T07:54:25;96065.03;;;17.57
6498;BMP280;3282;48.358;10.958;2022-09-09T07:56:52;96076.84;;;17.66
6498;BMP280;3282;48.358;10.958;2022-09-09T07:59:22;96070.97;;;17.72
6498;BMP280;3282;48.358;10.958;2022-09-09T08:01:51;96070.16;;;17.75
6498;BMP280;3282;48.358;10.958;2022-09-09T08:04:24;96072.34;;;17.84
6498;BMP280;3282;48.358;10.958;2022-09-09T08:06:57;96062.53;;;17.90
6498;BMP280;3282;48.358;10.958;2022-09-09T08:09:26;96058.25;;;17.92
6498;BMP280;3282;48.358;10.958;2022-09-09T08:12:05;96057.41;;;17.96
6498;BMP280;3282;48.358;10.958;2022-09-09T08:14:34;96054.38;;;17.94
6498;BMP280;3282;48.358;10.958;2022-09-09T08:17:03;96077.31;;;18.09
6498;BMP280;3282;48.358;10.958;2022-09-09T08:19:31;96091.06;;;18.18
6498;BMP280;3282;48.358;10.958;2022-09-09T08:22:04;96083.16;;;18.28
6498;BMP280;3282;48.358;10.958;2022-09-09T08:24:33;96081.00;;;18.39
6498;BMP280;3282;48.358;10.958;2022-09-09T08:27:00;96078.81;;;18.51
6498;BMP280;3282;48.358;10.958;2022-09-09T08:29:28;96080.41;;;18.68
6498;BMP280;3282;48.358;10.958;2022-09-09T08:31:58;96084.13;;;18.95
6498;BMP280;3282;48.358;10.958;2022-09-09T08:34:26;96086.63;;;19.22
6498;BMP280;3282;48.358;10.958;2022-09-09T08:36:55;96086.47;;;19.46
6498;BMP280;3282;48.358;10.958;2022-09-09T08:39:32;96087.91;;;19.68
6498;BMP280;3282;48.358;10.958;2022-09-09T08:42:04;96081.50;;;19.74
6498;BMP280;3282;48.358;10.958;2022-09-09T08:53:01;96083.53;;;19.87
6498;BMP280;3282;48.358;10.958;2022-09-09T08:58:09;96089.66;;;19.74
6498;BMP280;3282;48.358;10.958;2022-09-09T09:08:54;96078.69;;;19.78
6498;BMP280;3282;48.358;10.958;2022-09-09T09:11:25;96082.69;;;19.90
6498;BMP280;3282;48.358;10.958;2022-09-09T09:14:00;96082.84;;;19.99
6498;BMP280;3282;48.358;10.958;2022-09-09T09:16:53;96085.59;;;20.12
6498;BMP280;3282;48.358;10.958;2022-09-09T09:19:22;96089.06;;;20.13
6498;BMP280;3282;48.358;10.958;2022-09-09T09:22:21;96082.25;;;20.21
6498;BMP280;3282;48.358;10.958;2022-09-09T09:24:59;96083.38;;;20.37
6498;BMP280;3282;48.358;10.958;2022-09-09T09:27:32;96081.78;;;20.52
6498;BMP280;3282;48.358;10.958;2022-09-09T09:30:06;96086.88;;;20.63
6498;BMP280;3282;48.358;10.958;2022-09-09T09:33:21;96083.09;;;20.61
6498;BMP280;3282;48.358;10.958;2022-09-09T09:35:50;96084.41;;;20.69
6498;BMP280;3282;48.358;10.958;2022-09-09T09:38:21;96088.88;;;20.63
6498;BMP280;3282;48.358;10.958;2022-09-09T09:41:09;96090.38;;;20.77
6498;BMP280;3282;48.358;10.958;2022-09-09T09:43:40;96090.38;;;20.77
6498;BMP280;3282;48.358;10.958;2022-09-09T09:46:22;96090.50;;;20.73
6498;BMP280;3282;48.358;10.958;2022-09-09T09:49:04;96086.19;;;20.76
6498;BMP280;3282;48.358;10.958;2022-09-09T09:51:33;96077.03;;;20.69
6498;BMP280;3282;48.358;10.958;2022-09-09T09:54:14;96080.28;;;20.77
6498;BMP280;3282;48.358;10.958;2022-09-09T09:56:47;96081.16;;;20.74
6498;BMP280;3282;48.358;10.958;2022-09-09T09:59:34;96083.97;;;20.70
6498;BMP280;3282;48.358;10.958;2022-09-09T10:02:26;96095.81;;;20.64
6498;BMP280;3282;48.358;10.958;2022-09-09T10:05:13;96084.28;;;20.60
6498;BMP280;3282;48.358;10.958;2022-09-09T10:07:43;96081.25;;;20.58
6498;BMP280;3282;48.358;10.958;2022-09-09T10:10:22;96092.25;;;20.67
6498;BMP280;3282;48.358;10.958;2022-09-09T10:13:07;96086.25;;;20.72
6498;BMP280;3282;48.358;10.958;2022-09-09T10:24:42;96086.94;;;20.76
6498;BMP280;3282;48.358;10.958;2022-09-09T10:30:06;96087.34;;;20.62
6498;BMP280;3282;48.358;10.958;2022-09-09T10:35:51;96086.56;;;20.48
6498;BMP280;3282;48.358;10.958;2022-09-09T10:38:53;96077.00;;;20.56
6498;BMP280;3282;48.358;10.958;2022-09-09T10:44:17;96090.19;;;20.71
6498;BMP280;3282;48.358;10.958;2022-09-09T10:49:31;96076.25;;;20.69
6498;BMP280;3282;48.358;10.958;2022-09-09T10:57:33;96081.25;;;20.83
6498;BMP280;3282;48.358;10.958;2022-09-09T11:00:06;96076.06;;;20.89
6498;BMP280;3282;48.358;10.958;2022-09-09T11:02:34;96082.81;;;20.85
6498;BMP280;3282;48.358;10.958;2022-09-09T11:05:05;96071.81;;;20.88
6498;BMP280;3282;48.358;10.958;2022-09-09T11:07:54;96074.31;;;20.82
6498;BMP280;3282;48.358;10.958;2022-09-09T11:16:27;96083.97;;;20.70
6498;BMP280;3282;48.358;10.958;2022-09-09T11:19:03;96079.63;;;20.73
6498;BMP280;3282;48.358;10.958;2022-09-09T11:21:38;96077.03;;;20.82
6498;BMP280;3282;48.358;10.958;2022-09-09T11:24:14;96077.69;;;20.87
6498;BMP280;3282;48.358;10.958;2022-09-09T11:27:29;96077.38;;;20.98
6498;BMP280;3282;48.358;10.958;2022-09-09T11:30:02;96081.94;;;21.01
6498;BMP280;3282;48.358;10.958;2022-09-09T11:38:26;96075.94;;;20.93
6498;BMP280;3282;48.358;10.958;2022-09-09T11:41:02;96081.38;;;20.93
6498;BMP280;3282;48.358;10.958;2022-09-09T11:43:31;96078.44;;;20.87
6498;BMP280;3282;48.358;10.958;2022-09-09T11:46:01;96066.94;;;20.83
6498;BMP280;3282;48.358;10.958;2022-09-09T11:48:36;96073.22;;;20.93
6498;BMP280;3282;48.358;10.958;2022-09-09T11:51:07;96071.72;;;20.92
6498;BMP280;3282;48.358;10.958;2022-09-09T11:53:53;96068.09;;;20.95
6498;BMP280;3282;48.358;10.958;2022-09-09T11:56:32;96066.38;;;21.01
6498;BMP280;3282;48.358;10.958;2022-09-09T11:59:05;96070.38;;;21.09
6498;BMP280;3282;48.358;10.958;2022-09-09T12:01:43;96078.66;;;21.19
6498;BMP280;3282;48.358;10.958;2022-09-09T12:09:48;96056.91;;;21.19
6498;BMP280;3282;48.358;10.958;2022-09-09T12:12:21;96058.59;;;21.26
6498;BMP280;3282;48.358;10.958;2022-09-09T12:14:58;96042.81;;;21.33
6498;BMP280;3282;48.358;10.958;2022-09-09T12:17:28;96045.31;;;21.41
6498;BMP280;3282;48.358;10.958;2022-09-09T12:25:33;96047.88;;;21.57
6498;BMP280;3282;48.358;10.958;2022-09-09T12:28:17;96052.44;;;21.60
6498;BMP280;3282;48.358;10.958;2022-09-09T12:30:52;96055.44;;;21.40
6498;BMP280;3282;48.358;10.958;2022-09-09T12:33:21;96051.97;;;21.40
6498;BMP280;3282;48.358;10.958;2022-09-09T12:35:57;96053.41;;;21.54
6498;BMP280;3282;48.358;10.958;2022-09-09T12:38:34;96046.59;;;21.49
6498;BMP280;3282;48.358;10.958;2022-09-09T12:41:00;96044.41;;;21.44
6498;BMP280;3282;48.358;10.958;2022-09-09T12:43:28;96036.78;;;21.52
6498;BMP280;3282;48.358;10.958;2022-09-09T12:46:01;96044.03;;;21.55
6498;BMP280;3282;48.358;10.958;2022-09-09T12:48:38;96035.13;;;21.54
6498;BMP280;3282;48.358;10.958;2022-09-09T12:51:17;96033.97;;;21.42
6498;BMP280;3282;48.358;10.958;2022-09-09T12:53:45;96029.41;;;21.39
6498;BMP280;3282;48.358;10.958;2022-09-09T12:56:23;96027.88;;;21.38
6498;BMP280;3282;48.358;10.958;2022-09-09T12:58:54;96022.66;;;21.44
6498;BMP280;3282;48.358;10.958;2022-09-09T13:01:32;96020.81;;;21.41
6498;BMP280;3282;48.358;10.958;2022-09-09T13:04:02;96015.94;;;21.35
6498;BMP280;3282;48.358;10.958;2022-09-09T13:06:29;96009.81;;;21.44
6498;BMP280;3282;48.358;10.958;2022-09-09T13:09:01;96010.13;;;21.46
6498;BMP280;3282;48.358;10.958;2022-09-09T13:13:58;96011.53;;;21.38
6498;BMP280;3282;48.358;10.958;2022-09-09T13:16:30;96006.34;;;21.31
6498;BMP280;3282;48.358;10.958;2022-09-09T13:19:00;95998.84;;;21.35
6498;BMP280;3282;48.358;10.958;2022-09-09T13:21:34;95999.44;;;21.52
6498;BMP280;3282;48.358;10.958;2022-09-09T13:24:01;95994.91;;;21.58
6498;BMP280;3282;48.358;10.958;2022-09-09T13:26:30;95993.50;;;21.67
6498;BMP280;3282;48.358;10.958;2022-09-09T13:29:13;95987.72;;;21.64
6498;BMP280;3282;48.358;10.958;2022-09-09T13:31:44;95992.63;;;21.70
6498;BMP280;3282;48.358;10.958;2022-09-09T13:34:26;95986.72;;;21.71
6498;BMP280;3282;48.358;10.958;2022-09-09T13:37:01;95980.47;;;21.71
6498;BMP280;3282;48.358;10.958;2022-09-09T13:39:29;95975.81;;;21.94
6498;BMP280;3282;48.358;10.958;2022-09-09T13:41:55;95970.50;;;22.22
6498;BMP280;3282;48.358;10.958;2022-09-09T13:44:25;95969.44;;;22.60
6498;BMP280;3282;48.358;10.958;2022-09-09T13:47:01;95975.44;;;23.05
6498;BMP280;3282;48.358;10.958;2022-09-09T13:49:34;95960.28;;;23.23
6498;BMP280;3282;48.358;10.958;2022-09-09T13:52:12;95963.28;;;23.06
6498;BMP280;3282;48.358;10.958;2022-09-09T13:54:47;95960.88;;;23.08
6498;BMP280;3282;48.358;10.958;2022-09-09T13:57:17;95971.91;;;22.86
6498;BMP280;3282;48.358;10.958;2022-09-09T13:59:46;95965.84;;;22.73
6498;BMP280;3282;48.358;10.958;2022-09-09T14:02:30;95955.25;;;22.34
6498;BMP280;3282;48.358;10.958;2022-09-09T14:04:57;95985.25;;;22.34
6498;BMP280;3282;48.358;10.958;2022-09-09T14:07:24;95976.72;;;22.22
6498;BMP280;3282;48.358;10.958;2022-09-09T14:09:51;95975.91;;;22.12
6498;BMP280;3282;48.358;10.958;2022-09-09T14:12:18;95981.00;;;22.01
6498;BMP280;3282;48.358;10.958;2022-09-09T14:14:46;95990.72;;;21.80
6498;BMP280;3282;48.358;10.958;2022-09-09T14:17:13;96009.25;;;21.72
6498;BMP280;3282;48.358;10.958;2022-09-09T14:19:40;96030.09;;;21.66
6498;BMP280;3282;48.358;10.958;2022-09-09T14:22:07;96071.66;;;21.18
6498;BMP280;3282;48.358;10.958;2022-09-09T14:24:33;96061.47;;;20.57
6498;BMP280;3282;48.358;10.958;2022-09-09T14:27:00;96065.00;;;19.98
6498;BMP280;3282;48.358;10.958;2022-09-09T14:29:26;96035.75;;;19.43
6498;BMP280;3282;48.358;10.958;2022-09-09T14:31:53;96035.97;;;19.03
6498;BMP280;3282;48.358;10.958;2022-09-09T14:34:22;96038.38;;;18.80
6498;BMP280;3282;48.358;10.958;2022-09-09T14:36:49;96026.13;;;18.72
6498;BMP280;3282;48.358;10.958;2022-09-09T14:39:17;96020.47;;;18.66
6498;BMP280;3282;48.358;10.958;2022-09-09T14:41:43;96007.16;;;18.72
6498;BMP280;3282;48.358;10.958;2022-09-09T14:44:10;96009.09;;;18.92
6498;BMP280;3282;48.358;10.958;2022-09-09T14:46:36;96002.88;;;19.08
6498;BMP280;3282;48.358;10.958;2022-09-09T14:49:03;96006.88;;;19.20
6498;BMP280;3282;48.358;10.958;2022-09-09T14:51:29;96000.19;;;19.24
6498;BMP280;3282;48.358;10.958;2022-09-09T14:53:58;96002.72;;;19.32
6498;BMP280;3282;48.358;10.958;2022-09-09T14:56:28;95983.06;;;19.28
6498;BMP280;3282;48.358;10.958;2022-09-09T14:58:57;95994.41;;;19.39
6498;BMP280;3282;48.358;10.958;2022-09-09T15:01:24;95994.72;;;19.41
6498;BMP280;3282;48.358;10.958;2022-09-09T15:04:04;96000.13;;;19.41
6498;BMP280;3282;48.358;10.958;2022-09-09T15:06:35;95997.03;;;19.43
6498;BMP280;3282;48.358;10.958;2022-09-09T15:09:05;95996.94;;;19.46
6498;BMP280;3282;48.358;10.958;2022-09-09T15:11:37;95992.94;;;19.51
6498;BMP280;3282;48.358;10.958;2022-09-09T15:14:05;95994.50;;;19.65
6498;BMP280;3282;48.358;10.958;2022-09-09T15:16:33;95991.16;;;19.74
6498;BMP280;3282;48.358;10.958;2022-09-09T15:19:01;95986.53;;;19.87
6498;BMP280;3282;48.358;10.958;2022-09-09T15:21:30;95979.41;;;19.94
6498;BMP280;3282;48.358;10.958;2022-09-09T15:23:57;95975.81;;;19.97
6498;BMP280;3282;48.358;10.958;2022-09-09T15:26:24;95975.75;;;20.00
6498;BMP280;3282;48.358;10.958;2022-09-09T15:28:52;95973.34;;;20.02
6498;BMP280;3282;48.358;10.958;2022-09-09T15:31:21;95970.53;;;20.06
6498;BMP280;3282;48.358;10.958;2022-09-09T15:36:19;95974.34;;;20.09
6498;BMP280;3282;48.358;10.958;2022-09-09T15:38:46;95970.53;;;20.06
6498;BMP280;3282;48.358;10.958;2022-09-09T15:41:14;95954.69;;;20.05
6498;BMP280;3282;48.358;10.958;2022-09-09T15:43:44;95970.78;;;20.12
6498;BMP280;3282;48.358;10.958;2022-09-09T15:48:44;95968.28;;;20.05
6498;BMP280;3282;48.358;10.958;2022-09-09T15:51:14;95963.38;;;19.99
6498;BMP280;3282;48.358;10.958;2022-09-09T15:54:00;95963.13;;;19.94
6498;BMP280;3282;48.358;10.958;2022-09-09T15:56:28;95956.03;;;19.83
6498;BMP280;3282;48.358;10.958;2022-09-09T15:58:59;95946.66;;;19.71
6498;BMP280;3282;48.358;10.958;2022-09-09T16:01:26;95959.72;;;19.76
6498;BMP280;3282;48.358;10.958;2022-09-09T16:03:53;95948.84;;;19.76
6498;BMP280;3282;48.358;10.958;2022-09-09T16:06:22;95950.28;;;19.81
6498;BMP280;3282;48.358;10.958;2022-09-09T16:08:51;95950.50;;;19.87
6498;BMP280;3282;48.358;10.958;2022-09-09T16:11:21;95944.53;;;19.92
6498;BMP280;3282;48.358;10.958;2022-09-09T16:13:48;95936.09;;;19.90
6498;BMP280;3282;48.358;10.958;2022-09-09T16:16:18;95935.03;;;20.00
6498;BMP280;3282;48.358;10.958;2022-09-09T16:18:47;95932.19;;;20.04
6498;BMP280;3282;48.358;10.958;2022-09-09T16:21:18;95929.78;;;20.06
6498;BMP280;3282;48.358;10.958;2022-09-09T16:23:44;95928.72;;;20.03
6498;BMP280;3282;48.358;10.958;2022-09-09T16:26:13;95931.06;;;20.01
6498;BMP280;3282;48.358;10.958;2022-09-09T16:28:40;95931.97;;;19.98
6498;BMP280;3282;48.358;10.958;2022-09-09T16:31:12;95926.94;;;19.84
6498;BMP280;3282;48.358;10.958;2022-09-09T16:33:40;95933.78;;;19.88